Time;durP1;ratioP1;P1;durP2;ratioP2;P2;SDS_P1;SDS_P2;PMS_P1;PMS_P2;Temp;Humidity;BMP_temperature;BMP_pressure;BME280_temperature;BME280_humidity;BME280_pressure;Samples;Min_cycle;Max_cycle;Signal;HPM_P1;HPM_P2
2022/08/29 00:01:01;;;;;;;4.07;2.00;;;16.00;99.90;;;;;;4985133;28;20637;-58
2022/08/29 00:03:28;;;;;;;4.72;1.55;;;16.30;99.90;;;;;;4984344;28;20117;-58
2022/08/29 00:05:55;;;;;;;4.38;1.85;;;15.70;99.90;;;;;;4984423;28;20034;-58
2022/08/29 00:08:22;;;;;;;9.95;1.60;;;;;;;;;;4985286;28;20034;-58
2022/08/29 00:10:48;;;;;;;6.05;1.88;;;15.50;99.90;;;;;;4987483;28;20022;-58
2022/08/29 00:13:16;;;;;;;4.38;1.83;;;15.90;99.90;;;;;;4988066;28;20041;-58
2022/08/29 00:15:42;;;;;;;4.25;1.50;;;15.90;99.90;;;;;;4987211;28;20022;-58
2022/08/29 00:18:09;;;;;;;6.50;1.70;;;;;;;;;;4984623;28;20044;-58
2022/08/29 00:20:35;;;;;;;5.55;1.75;;;15.90;99.90;;;;;;4985123;28;20034;-56
2022/08/29 00:23:03;;;;;;;6.25;2.20;;;;;;;;;;4987465;28;20034;-58
2022/08/29 00:25:30;;;;;;;5.82;1.77;;;;;;;;;;4988120;28;20683;-57
2022/08/29 00:27:56;;;;;;;5.40;1.95;;;15.50;99.90;;;;;;4986660;28;20809;-58
2022/08/29 00:30:23;;;;;;;6.72;1.83;;;15.70;99.90;;;;;;4984855;28;20027;-57
2022/08/29 00:32:49;;;;;;;3.92;1.50;;;15.50;99.90;;;;;;4985847;28;20721;-58
2022/08/29 00:35:25;;;;;;;5.38;1.75;;;15.80;99.90;;;;;;4988261;28;20073;-57
2022/08/29 00:37:53;;;;;;;5.82;2.13;;;;;;;;;;4988361;28;20494;-56
2022/08/29 00:40:23;;;;;;;4.15;1.55;;;15.60;99.90;;;;;;4982151;28;20054;-58
2022/08/29 00:42:50;;;;;;;4.32;1.63;;;;;;;;;;4985888;28;20030;-56
2022/08/29 00:45:18;;;;;;;4.15;1.70;;;15.30;99.90;;;;;;4988766;28;20566;-57
2022/08/29 00:47:47;;;;;;;6.75;2.08;;;;;;;;;;4988396;28;20026;-57
2022/08/29 00:50:23;;;;;;;4.35;1.52;;;14.90;99.90;;;;;;4984514;28;20022;-57
2022/08/29 00:52:50;;;;;;;5.05;1.83;;;;;;;;;;4988632;28;20088;-57
2022/08/29 00:55:20;;;;;;;4.18;1.77;;;;;;;;;;4985897;28;20478;-58
2022/08/29 00:57:48;;;;;;;4.63;1.70;;;;;;;;;;4988248;28;20054;-57
2022/08/29 01:00:16;;;;;;;3.78;1.65;;;;;;;;;;4987710;28;20030;-58
2022/08/29 01:02:43;;;;;;;6.20;1.90;;;;;;;;;;4985943;28;20022;-57
2022/08/29 01:05:14;;;;;;;4.30;1.60;;;;;;;;;;4987046;28;20984;-57
2022/08/29 01:07:41;;;;;;;3.50;1.58;;;14.60;99.90;;;;;;4985119;28;20084;-57
2022/08/29 01:10:08;;;;;;;5.43;1.75;;;14.90;99.90;;;;;;4985971;28;20048;-57
2022/08/29 01:12:35;;;;;;;6.15;1.92;;;14.90;99.90;;;;;;4988366;28;20084;-58
2022/08/29 01:15:06;;;;;;;4.40;1.88;;;15.00;99.90;;;;;;4984489;28;20029;-57
2022/08/29 01:17:46;;;;;;;5.45;1.98;;;15.10;99.90;;;;;;4990381;28;20449;-58
2022/08/29 01:20:26;;;;;;;4.75;1.95;;;15.10;99.90;;;;;;4985787;28;20035;-54
2022/08/29 01:22:59;;;;;;;4.88;1.80;;;15.00;99.90;;;;;;4986240;28;20030;-57
2022/08/29 01:25:30;;;;;;;4.57;2.00;;;14.80;99.90;;;;;;4984861;28;20022;-57
2022/08/29 01:28:06;;;;;;;4.28;1.80;;;14.10;99.90;;;;;;4985378;28;20027;-57
2022/08/29 01:30:32;;;;;;;4.00;1.80;;;14.70;99.90;;;;;;4999523;28;20027;-58
2022/08/29 01:32:59;;;;;;;5.82;1.70;;;14.60;99.90;;;;;;4989263;28;20491;-57
2022/08/29 01:35:26;;;;;;;3.72;1.70;;;14.60;99.90;;;;;;4985297;28;20045;-58
2022/08/29 01:37:52;;;;;;;4.60;1.80;;;14.70;99.90;;;;;;4985131;28;20666;-58
2022/08/29 01:40:18;;;;;;;5.60;1.70;;;14.60;99.90;;;;;;4982286;28;20031;-58
2022/08/29 01:42:43;;;;;;;5.88;2.03;;;14.50;99.90;;;;;;4982070;28;20490;-57
2022/08/29 01:45:09;;;;;;;5.72;2.20;;;14.70;99.90;;;;;;4988283;28;20041;-57
2022/08/29 01:47:37;;;;;;;5.63;1.90;;;14.60;99.90;;;;;;4979870;28;20390;-58
2022/08/29 01:50:06;;;;;;;5.43;1.60;;;14.70;99.90;;;;;;4985147;28;20026;-57
2022/08/29 01:52:32;;;;;;;7.75;2.22;;;14.50;99.90;;;;;;4985353;28;20030;-57
2022/08/29 01:54:58;;;;;;;4.85;1.83;;;14.30;99.90;;;;;;4988274;28;20034;-58
2022/08/29 01:57:23;;;;;;;6.03;1.83;;;14.60;99.90;;;;;;4986472;28;20116;-57
2022/08/29 01:59:49;;;;;;;8.15;2.45;;;14.60;99.90;;;;;;4981081;28;20146;-57
2022/08/29 02:02:27;;;;;;;9.25;2.25;;;14.40;99.90;;;;;;4985898;28;20179;-57
2022/08/29 02:04:54;;;;;;;6.30;2.30;;;14.60;99.90;;;;;;4983786;28;20030;-56
2022/08/29 02:07:23;;;;;;;6.47;2.15;;;14.60;99.90;;;;;;4983918;28;20026;-58
2022/08/29 02:09:49;;;;;;;4.53;1.85;;;14.60;99.90;;;;;;4984301;28;20030;-57
2022/08/29 02:12:16;;;;;;;4.05;2.28;;;14.60;99.90;;;;;;4983808;28;20053;-58
2022/08/29 02:14:42;;;;;;;3.92;1.90;;;14.70;99.90;;;;;;4988305;28;20038;-58
2022/08/29 02:17:08;;;;;;;2.75;1.65;;;14.60;99.90;;;;;;4981468;28;20488;-58
2022/08/29 02:19:37;;;;;;;6.53;1.88;;;14.50;99.90;;;;;;4988170;28;20109;-57
2022/08/29 02:22:04;;;;;;;3.15;1.85;;;14.50;99.90;;;;;;4984755;28;20037;-58
2022/08/29 02:24:29;;;;;;;7.60;2.08;;;14.60;99.90;;;;;;4983274;28;20064;-56
2022/08/29 02:26:56;;;;;;;4.10;1.90;;;14.50;99.90;;;;;;4985026;28;20486;-57
2022/08/29 02:29:23;;;;;;;3.92;1.77;;;14.40;99.90;;;;;;4985133;28;20034;-57
2022/08/29 02:31:48;;;;;;;4.50;2.00;;;14.30;99.90;;;;;;4984116;28;20394;-57
2022/08/29 02:34:14;;;;;;;3.50;1.80;;;13.50;99.90;;;;;;4984677;28;20043;-56
2022/08/29 02:36:40;;;;;;;5.15;2.03;;;14.30;99.90;;;;;;4984630;28;20096;-56
2022/08/29 02:39:06;;;;;;;4.25;1.80;;;14.30;99.90;;;;;;4980429;28;20088;-57
2022/08/29 02:41:31;;;;;;;6.55;1.98;;;14.30;99.90;;;;;;4984790;28;20069;-56
2022/08/29 02:43:57;;;;;;;7.10;2.35;;;14.30;99.90;;;;;;4982208;28;20030;-57
2022/08/29 02:46:24;;;;;;;5.00;2.58;;;14.20;99.90;;;;;;4984499;28;20457;-57
2022/08/29 02:48:50;;;;;;;5.10;2.20;;;14.40;99.90;;;;;;4982495;28;20088;-57
2022/08/29 02:51:26;;;;;;;6.03;2.08;;;14.30;99.90;;;;;;4997250;28;20038;-57
2022/08/29 02:53:53;;;;;;;6.38;1.90;;;14.30;99.90;;;;;;4985903;28;20023;-57
2022/08/29 02:56:19;;;;;;;6.45;2.30;;;14.30;99.90;;;;;;4979625;28;20034;-56
2022/08/29 02:58:45;;;;;;;4.10;2.15;;;14.30;99.90;;;;;;4986069;28;20026;-57
2022/08/29 03:01:11;;;;;;;5.18;2.25;;;14.30;99.90;;;;;;4984326;28;21175;-56
2022/08/29 03:03:37;;;;;;;8.18;2.95;;;14.20;99.90;;;;;;4988676;28;20101;-57
2022/08/29 03:06:03;;;;;;;7.18;2.28;;;14.10;99.90;;;;;;4998329;28;20042;-58
2022/08/29 03:08:29;;;;;;;5.05;2.10;;;14.10;99.90;;;;;;4982702;28;20414;-57
2022/08/29 03:10:54;;;;;;;7.43;2.30;;;14.00;99.90;;;;;;4985417;28;20014;-57
2022/08/29 03:13:20;;;;;;;4.47;2.35;;;13.80;99.90;;;;;;4983044;28;20309;-57
2022/08/29 03:15:46;;;;;;;5.38;2.50;;;14.00;99.90;;;;;;4983418;28;20061;-57
2022/08/29 03:18:13;;;;;;;4.60;2.20;;;13.90;99.90;;;;;;4985028;28;20487;-56
2022/08/29 03:20:40;;;;;;;5.25;1.95;;;14.00;99.90;;;;;;4984349;28;20030;-57
2022/08/29 03:23:07;;;;;;;7.22;2.20;;;13.90;99.90;;;;;;4985082;28;20073;-57
2022/08/29 03:25:33;;;;;;;6.25;2.28;;;14.20;99.90;;;;;;4984455;28;20142;-57
2022/08/29 03:27:59;;;;;;;7.25;2.33;;;14.10;99.90;;;;;;4987124;28;20140;-57
2022/08/29 03:30:26;;;;;;;6.97;2.60;;;14.20;99.90;;;;;;4999310;28;20025;-57
2022/08/29 03:32:52;;;;;;;8.73;2.47;;;13.90;99.90;;;;;;4979101;28;20019;-57
2022/08/29 03:35:18;;;;;;;5.97;2.35;;;13.80;99.90;;;;;;4984170;28;20045;-56
2022/08/29 03:37:45;;;;;;;6.15;2.15;;;13.70;99.90;;;;;;4983484;28;20050;-57
2022/08/29 03:40:12;;;;;;;5.15;2.35;;;13.80;99.90;;;;;;4977063;28;20030;-57
2022/08/29 03:42:38;;;;;;;6.93;1.92;;;13.40;99.90;;;;;;4979660;28;20504;-57
2022/08/29 03:45:09;;;;;;;5.38;2.20;;;13.80;99.90;;;;;;4986310;28;20097;-57
2022/08/29 03:47:35;;;;;;;5.35;2.35;;;13.70;99.90;;;;;;4992155;28;20025;-57
2022/08/29 03:50:01;;;;;;;6.10;2.40;;;13.70;99.90;;;;;;4986728;28;20037;-57
2022/08/29 03:52:26;;;;;;;7.95;2.50;;;13.70;99.90;;;;;;4988851;28;20026;-57
2022/08/29 03:54:52;;;;;;;3.53;2.17;;;13.80;99.90;;;;;;4987546;28;20022;-57
2022/08/29 03:57:17;;;;;;;5.72;2.45;;;13.70;99.90;;;;;;4984774;28;20438;-57
2022/08/29 03:59:43;;;;;;;5.60;2.33;;;13.60;99.90;;;;;;4987978;28;20041;-57
2022/08/29 04:02:09;;;;;;;4.40;2.17;;;13.70;99.90;;;;;;4990383;28;20516;-57
2022/08/29 04:07:20;;;;;;;6.97;2.50;;;;;;;;;;4985278;28;20617;-56
2022/08/29 04:09:46;;;;;;;5.28;2.50;;;13.20;99.90;;;;;;4992801;28;20548;-57
2022/08/29 04:12:12;;;;;;;6.35;2.97;;;13.60;99.90;;;;;;4986455;28;20058;-57
2022/08/29 04:14:39;;;;;;;10.50;3.00;;;13.60;99.90;;;;;;4987319;28;20030;-57
2022/08/29 04:17:06;;;;;;;6.85;2.83;;;13.60;99.90;;;;;;4986634;28;20030;-57
2022/08/29 04:19:33;;;;;;;4.88;2.17;;;13.60;99.90;;;;;;4987038;28;20042;-57
2022/08/29 04:21:59;;;;;;;7.85;2.67;;;13.50;99.90;;;;;;4992181;28;20029;-57
2022/08/29 04:24:25;;;;;;;7.57;2.53;;;13.50;99.90;;;;;;4988817;28;20449;-57
2022/08/29 04:26:50;;;;;;;7.32;2.75;;;13.50;99.90;;;;;;4986781;28;20117;-58
2022/08/29 04:29:18;;;;;;;7.93;3.15;;;13.40;99.90;;;;;;4989197;28;20027;-56
2022/08/29 04:31:44;;;;;;;9.15;3.22;;;13.40;99.90;;;;;;4990346;28;20033;-56
2022/08/29 04:34:12;;;;;;;7.65;3.20;;;13.50;99.90;;;;;;4984731;28;20035;-57
2022/08/29 04:36:44;;;;;;;4.93;2.85;;;13.50;99.90;;;;;;4984202;28;20030;-56
2022/08/29 04:39:10;;;;;;;13.23;3.33;;;13.50;99.90;;;;;;4988409;28;20113;-57
2022/08/29 04:41:37;;;;;;;6.25;3.30;;;13.50;99.90;;;;;;4987119;28;20022;-56
2022/08/29 04:44:04;;;;;;;5.78;3.00;;;13.50;99.90;;;;;;4986438;28;20093;-60
2022/08/29 04:46:30;;;;;;;9.23;3.25;;;;;;;;;;4985812;28;20430;-59
2022/08/29 04:48:56;;;;;;;5.30;2.90;;;13.40;99.90;;;;;;4986815;28;20069;-59
2022/08/29 04:51:22;;;;;;;8.05;3.10;;;13.50;99.90;;;;;;4990366;28;20435;-60
2022/08/29 04:53:50;;;;;;;8.85;3.17;;;13.50;99.90;;;;;;5003992;28;20033;-59
2022/08/29 04:56:15;;;;;;;10.88;3.47;;;13.30;99.90;;;;;;4986877;28;20484;-58
2022/08/29 04:58:43;;;;;;;12.73;3.25;;;13.40;99.90;;;;;;4986435;28;20151;-59
2022/08/29 05:01:11;;;;;;;5.57;3.15;;;13.10;99.90;;;;;;4984947;28;20445;-59
2022/08/29 05:03:38;;;;;;;8.43;3.42;;;;;;;;;;4983698;28;20022;-59
2022/08/29 05:06:07;;;;;;;9.15;3.22;;;;;;;;;;4986198;28;20500;-59
2022/08/29 05:08:34;;;;;;;7.57;3.38;;;13.50;99.90;;;;;;4976237;28;20470;-59
2022/08/29 05:11:01;;;;;;;8.25;3.22;;;;;;;;;;4988110;28;20469;-59
2022/08/29 05:13:27;;;;;;;8.18;3.15;;;13.60;99.90;;;;;;4982844;28;20374;-59
2022/08/29 05:15:53;;;;;;;6.45;3.38;;;13.50;99.90;;;;;;4987252;28;20110;-59
2022/08/29 05:18:19;;;;;;;7.63;2.95;;;13.30;99.90;;;;;;4979982;28;20035;-59
2022/08/29 05:20:47;;;;;;;7.28;3.38;;;13.50;99.90;;;;;;4986051;28;20084;-59
2022/08/29 05:23:14;;;;;;;8.45;3.38;;;13.30;99.90;;;;;;4983493;28;20032;-59
2022/08/29 05:25:40;;;;;;;10.68;3.95;;;13.50;99.90;;;;;;4987562;28;20040;-58
2022/08/29 05:28:10;;;;;;;9.30;3.55;;;13.50;99.90;;;;;;4988392;28;20038;-58
2022/08/29 05:30:39;;;;;;;9.35;3.70;;;13.30;99.90;;;;;;4987252;28;20018;-58
2022/08/29 05:33:06;;;;;;;11.60;3.75;;;13.50;99.90;;;;;;4994787;28;20508;-59
2022/08/29 05:35:33;;;;;;;13.25;4.40;;;11.50;99.90;;;;;;4988264;28;20026;-58
2022/08/29 05:38:00;;;;;;;10.70;4.50;;;13.70;99.90;;;;;;4989316;28;20036;-58
2022/08/29 05:40:26;;;;;;;10.32;3.85;;;14.40;99.90;;;;;;4977337;28;20364;-59
2022/08/29 05:42:52;;;;;;;10.90;4.30;;;14.00;99.90;;;;;;4983096;28;20034;-59
2022/08/29 05:45:18;;;;;;;8.32;4.13;;;13.70;99.90;;;;;;4982428;28;20530;-59
2022/08/29 05:47:45;;;;;;;8.75;4.35;;;;;;;;;;4986351;28;20023;-58
2022/08/29 05:50:15;;;;;;;12.10;4.40;;;;;;;;;;4990593;28;20486;-58
2022/08/29 05:52:41;;;;;;;8.75;4.15;;;13.90;99.90;;;;;;4983555;28;20022;-59
2022/08/29 05:55:07;;;;;;;12.75;5.32;;;;;;;;;;4987875;28;20060;-58
2022/08/29 05:57:33;;;;;;;10.73;4.60;;;14.30;99.90;;;;;;4981123;28;20135;-59
2022/08/29 05:59:59;;;;;;;14.30;5.40;;;14.20;99.90;;;;;;4985040;28;20463;-59
2022/08/29 06:02:25;;;;;;;13.15;5.28;;;14.30;99.90;;;;;;4979174;28;20109;-58
2022/08/29 06:04:51;;;;;;;10.98;4.80;;;13.50;99.90;;;;;;4976948;28;20110;-58
2022/08/29 06:07:17;;;;;;;9.75;5.20;;;14.50;99.90;;;;;;4980552;28;20033;-59
2022/08/29 06:09:44;;;;;;;13.95;5.53;;;14.70;99.90;;;;;;4984899;28;20038;-58
2022/08/29 06:12:12;;;;;;;18.10;5.50;;;14.80;99.90;;;;;;4979492;28;20466;-58
2022/08/29 06:14:38;;;;;;;12.65;5.47;;;15.20;99.90;;;;;;4978441;28;21018;-59
2022/08/29 06:17:06;;;;;;;9.68;5.60;;;14.80;99.90;;;;;;4982683;28;20054;-58
2022/08/29 06:19:33;;;;;;;13.52;5.53;;;14.80;99.90;;;;;;4977065;28;20038;-59
2022/08/29 06:22:02;;;;;;;14.70;5.38;;;14.90;99.90;;;;;;4985022;28;20052;-58
2022/08/29 06:24:28;;;;;;;18.67;6.07;;;14.90;99.90;;;;;;4982612;28;20041;-59
2022/08/29 06:26:54;;;;;;;12.77;5.20;;;15.20;99.90;;;;;;4982878;28;20045;-57
2022/08/29 06:29:19;;;;;;;13.15;5.20;;;15.20;99.90;;;;;;4981198;28;20038;-59
2022/08/29 06:31:45;;;;;;;9.73;4.82;;;15.30;99.90;;;;;;4983204;28;20030;-59
2022/08/29 06:34:10;;;;;;;12.93;5.45;;;15.30;99.90;;;;;;4977125;28;20030;-59
2022/08/29 06:36:36;;;;;;;10.75;5.15;;;15.40;99.90;;;;;;4982846;28;20026;-59
2022/08/29 06:39:06;;;;;;;14.82;5.80;;;15.30;99.90;;;;;;4978994;28;20412;-58
2022/08/29 06:41:32;;;;;;;19.13;6.38;;;15.50;99.90;;;;;;4984601;28;20034;-58
2022/08/29 06:43:57;;;;;;;15.15;5.28;;;15.40;99.90;;;;;;4984600;28;20477;-59
2022/08/29 06:46:32;;;;;;;12.60;5.40;;;15.40;99.90;;;;;;4986232;28;20038;-58
2022/08/29 06:49:01;;;;;;;10.98;5.10;;;15.40;99.90;;;;;;4985235;28;20022;-59
2022/08/29 06:51:31;;;;;;;9.35;4.95;;;15.50;99.90;;;;;;4983515;28;20018;-59
2022/08/29 06:54:00;;;;;;;13.57;5.10;;;15.50;99.90;;;;;;4984878;28;20470;-58
2022/08/29 06:56:26;;;;;;;14.48;5.25;;;15.70;99.90;;;;;;4984683;28;20465;-59
2022/08/29 06:58:51;;;;;;;22.08;5.90;;;15.70;99.90;;;;;;4984734;28;20041;-59
2022/08/29 07:01:20;;;;;;;12.82;5.20;;;15.90;99.90;;;;;;4985976;28;20113;-59
2022/08/29 07:03:46;;;;;;;12.25;5.05;;;15.90;99.90;;;;;;4983421;28;20022;-59
2022/08/29 07:06:12;;;;;;;17.45;4.95;;;15.90;99.90;;;;;;4998721;28;20684;-60
2022/08/29 07:08:38;;;;;;;14.02;5.40;;;16.00;99.90;;;;;;4985963;28;20458;-59
2022/08/29 07:11:04;;;;;;;19.75;5.90;;;16.10;99.90;;;;;;4985898;28;20046;-59
2022/08/29 07:13:30;;;;;;;12.30;5.35;;;16.10;99.90;;;;;;4981216;28;20191;-59
2022/08/29 07:15:56;;;;;;;13.73;4.57;;;16.10;99.90;;;;;;4981768;28;20023;-59
2022/08/29 07:18:21;;;;;;;16.30;4.90;;;16.30;99.90;;;;;;4984945;28;20029;-59
2022/08/29 07:20:48;;;;;;;12.70;4.40;;;16.50;99.90;;;;;;4982178;28;20026;-59
2022/08/29 07:23:13;;;;;;;13.93;4.50;;;16.40;99.90;;;;;;4985618;28;20462;-60
2022/08/29 07:25:39;;;;;;;12.43;4.20;;;16.50;99.90;;;;;;4985356;28;20031;-60
2022/08/29 07:28:05;;;;;;;13.20;4.35;;;16.60;99.90;;;;;;4985261;28;20031;-59
2022/08/29 07:30:31;;;;;;;9.25;3.72;;;17.00;99.90;;;;;;4983265;28;20576;-58
2022/08/29 07:32:57;;;;;;;11.18;3.75;;;17.00;99.90;;;;;;4988973;28;20034;-60
2022/08/29 07:35:24;;;;;;;10.35;4.10;;;17.20;99.90;;;;;;4982222;28;20690;-60
2022/08/29 07:37:50;;;;;;;15.68;4.40;;;17.30;99.90;;;;;;4981876;28;20469;-60
2022/08/29 07:40:16;;;;;;;7.55;3.42;;;17.40;99.90;;;;;;4983602;28;20029;-60
2022/08/29 07:42:42;;;;;;;12.60;4.35;;;17.00;99.90;;;;;;4984570;28;20386;-60
2022/08/29 07:45:10;;;;;;;10.88;3.83;;;17.60;99.90;;;;;;4985977;28;20034;-60
2022/08/29 07:47:36;;;;;;;16.48;4.10;;;17.60;99.90;;;;;;4985278;28;20482;-60
2022/08/29 07:50:04;;;;;;;14.40;4.20;;;17.60;99.90;;;;;;4985582;28;20092;-59
2022/08/29 07:52:29;;;;;;;10.45;3.53;;;17.50;99.90;;;;;;4983014;28;20038;-60
2022/08/29 07:54:55;;;;;;;12.10;4.10;;;17.60;99.90;;;;;;4983803;28;20570;-59
2022/08/29 07:57:21;;;;;;;12.00;4.00;;;17.80;99.90;;;;;;4984222;28;20027;-59
2022/08/29 07:59:47;;;;;;;11.18;3.85;;;17.60;99.90;;;;;;4983726;28;20025;-59
2022/08/29 08:02:12;;;;;;;14.18;3.80;;;17.70;99.90;;;;;;4986407;28;20077;-60
2022/08/29 08:04:38;;;;;;;10.13;3.72;;;17.70;99.90;;;;;;4984980;28;20476;-59
2022/08/29 08:07:04;;;;;;;10.27;3.63;;;17.80;99.90;;;;;;4988293;28;20635;-59
2022/08/29 08:09:30;;;;;;;13.63;3.72;;;17.80;99.90;;;;;;4977722;28;20037;-59
2022/08/29 08:11:56;;;;;;;8.00;3.60;;;;;;;;;;4980054;28;20030;-59
2022/08/29 08:14:22;;;;;;;9.00;3.40;;;17.80;99.90;;;;;;4984063;28;20030;-59
2022/08/29 08:16:48;;;;;;;10.85;3.78;;;18.00;99.90;;;;;;4984576;28;20433;-60
2022/08/29 08:19:17;;;;;;;9.10;3.47;;;18.10;99.90;;;;;;4984758;28;20092;-60
2022/08/29 08:21:43;;;;;;;10.85;2.95;;;18.10;99.90;;;;;;4985467;28;20023;-61
2022/08/29 08:24:10;;;;;;;8.95;3.67;;;;;;;;;;4985638;28;20470;-60
2022/08/29 08:26:36;;;;;;;17.25;3.20;;;17.90;99.90;;;;;;4983105;28;20550;-60
2022/08/29 08:29:02;;;;;;;7.65;3.38;;;18.10;99.90;;;;;;4987048;28;20193;-60
2022/08/29 08:31:28;;;;;;;10.90;3.38;;;;;;;;;;4989347;28;20490;-60
2022/08/29 08:33:55;;;;;;;10.13;3.47;;;;;;;;;;4988205;28;20076;-60
2022/08/29 08:36:25;;;;;;;13.00;3.88;;;;;;;;;;4986614;28;20543;-60
2022/08/29 08:38:53;;;;;;;14.60;3.20;;;;;;;;;;4988551;28;20162;-60
2022/08/29 08:41:54;;;;;;;8.02;3.10;;;18.10;99.90;;;;;;4985908;28;20026;-59
2022/08/29 08:44:27;;;;;;;8.30;3.20;;;17.90;99.90;;;;;;4985829;28;20026;-60
2022/08/29 08:47:00;;;;;;;9.02;3.00;;;18.00;99.90;;;;;;4987851;28;20516;-58
2022/08/29 08:49:53;;;;;;;10.23;3.20;;;18.00;99.90;;;;;;4984330;28;20057;-60
2022/08/29 08:52:26;;;;;;;13.55;3.50;;;17.90;99.90;;;;;;4988772;28;20069;-59
2022/08/29 08:55:28;;;;;;;9.38;3.15;;;18.20;99.90;;;;;;4985470;28;20022;-58
2022/08/29 08:58:05;;;;;;;10.23;3.60;;;18.20;99.90;;;;;;4985814;28;20125;-60
2022/08/29 09:00:40;;;;;;;9.52;3.40;;;18.20;99.90;;;;;;4986924;28;20378;-60
2022/08/29 09:03:32;;;;;;;16.25;3.78;;;;;;;;;;4984273;28;20061;-60
2022/08/29 09:06:11;;;;;;;10.40;3.65;;;;;;;;;;4985271;28;20037;-60
2022/08/29 09:09:08;;;;;;;9.80;3.70;;;18.40;99.90;;;;;;4990847;28;20108;-60
2022/08/29 09:11:44;;;;;;;10.18;3.58;;;;;;;;;;4967370;28;20159;-59
2022/08/29 09:14:32;;;;;;;12.07;3.47;;;;;;;;;;4987468;28;20018;-60
2022/08/29 09:16:59;;;;;;;9.27;3.70;;;;;;;;;;4987758;28;20026;-60
2022/08/29 09:19:25;;;;;;;10.07;3.30;;;18.60;99.90;;;;;;4990347;28;20033;-60
2022/08/29 09:21:54;;;;;;;11.00;3.33;;;18.60;99.90;;;;;;4988620;28;20113;-60
2022/08/29 09:24:42;;;;;;;9.63;3.58;;;18.70;99.90;;;;;;4985775;28;20037;-60
2022/08/29 09:27:17;;;;;;;12.18;4.18;;;;;;;;;;4982914;28;20634;-60
2022/08/29 09:29:45;;;;;;;9.93;4.13;;;;;;;;;;4992105;28;20593;-60
2022/08/29 09:32:14;;;;;;;10.50;4.05;;;;;;;;;;4987350;28;20154;-61
2022/08/29 09:34:45;;;;;;;10.77;4.20;;;;;;;;;;4986182;28;20533;-59
2022/08/29 09:37:31;;;;;;;10.27;3.38;;;19.30;99.90;;;;;;4983512;28;20065;-60
2022/08/29 09:40:09;;;;;;;10.52;4.00;;;19.50;99.90;;;;;;4984311;28;20114;-60
2022/08/29 09:42:41;;;;;;;13.95;3.65;;;20.20;99.90;;;;;;4985240;28;20387;-60
2022/08/29 09:45:20;;;;;;;14.80;4.28;;;20.30;99.90;;;;;;4983121;28;20033;-60
2022/08/29 09:47:46;;;;;;;8.65;3.63;;;20.40;99.90;;;;;;4986913;28;20029;-61
2022/08/29 09:50:23;;;;;;;11.90;3.95;;;20.60;99.90;;;;;;4986518;28;20458;-59
2022/08/29 09:53:02;;;;;;;12.07;3.75;;;20.20;99.90;;;;;;4984368;28;20026;-60
2022/08/29 09:55:29;;;;;;;9.55;3.50;;;19.90;99.90;;;;;;4985149;28;20023;-61
2022/08/29 09:58:00;;;;;;;7.78;3.72;;;20.60;99.90;;;;;;4984395;28;20553;-61
2022/08/29 10:00:31;;;;;;;10.23;3.50;;;20.30;99.90;;;;;;4985566;28;20042;-60
2022/08/29 10:03:02;;;;;;;12.00;4.13;;;20.30;99.90;;;;;;4985890;28;20060;-60
2022/08/29 10:05:39;;;;;;;11.90;3.80;;;20.30;99.90;;;;;;4982299;28;20030;-61
2022/08/29 10:08:21;;;;;;;14.07;4.10;;;20.60;99.90;;;;;;4988064;28;20042;-61
2022/08/29 10:10:53;;;;;;;10.07;3.65;;;20.20;99.90;;;;;;4985917;28;20026;-61
2022/08/29 10:13:23;;;;;;;7.85;3.80;;;20.40;99.90;;;;;;4984203;28;20018;-61
2022/08/29 10:16:13;;;;;;;13.70;4.20;;;20.40;99.90;;;;;;4985383;28;20025;-61
2022/08/29 10:18:51;;;;;;;14.55;3.72;;;20.20;99.90;;;;;;4984319;28;20481;-61
2022/08/29 10:21:57;;;;;;;11.60;3.45;;;20.40;99.90;;;;;;4985884;28;20080;-60
2022/08/29 10:24:44;;;;;;;11.63;3.17;;;;;;;;;;4987232;28;20465;-59
2022/08/29 10:27:22;;;;;;;9.38;4.13;;;21.00;99.90;;;;;;4985576;28;20038;-61
2022/08/29 10:29:57;;;;;;;6.78;3.10;;;20.90;99.90;;;;;;4985687;28;20034;-61
2022/08/29 10:32:46;;;;;;;9.18;3.50;;;20.80;99.90;;;;;;4988871;28;20053;-62
2022/08/29 10:35:30;;;;;;;10.63;3.60;;;20.70;99.90;;;;;;4984317;28;20034;-61
2022/08/29 10:38:04;;;;;;;;;;;20.80;99.90;;;;;;4980985;28;20048;-60
2022/08/29 10:40:42;;;;;;;8.50;3.70;;;20.80;99.90;;;;;;4980451;28;19910;-60
2022/08/29 10:43:13;;;;;;;11.75;4.20;;;19.90;99.90;;;;;;4984795;28;20026;-60
2022/08/29 10:45:38;;;;;;;13.52;4.32;;;20.30;99.90;;;;;;4984795;28;20065;-61
2022/08/29 10:48:44;;;;;;;10.82;3.85;;;19.80;99.90;;;;;;4986395;28;20188;-61
2022/08/29 10:51:20;;;;;;;7.70;3.63;;;20.00;99.90;;;;;;4977027;28;20092;-61
2022/08/29 10:53:55;;;;;;;9.63;3.83;;;20.30;99.90;;;;;;4987086;28;20085;-61
2022/08/29 10:56:22;;;;;;;14.15;4.00;;;20.50;99.90;;;;;;4985423;28;20034;-51
2022/08/29 10:59:13;;;;;;;11.98;4.32;;;20.60;99.90;;;;;;4985566;28;20027;-61
2022/08/29 11:01:52;;;;;;;9.27;3.30;;;20.60;99.90;;;;;;4989713;28;20513;-60
2022/08/29 11:04:39;;;;;;;10.20;3.38;;;20.40;99.90;;;;;;4984955;28;20034;-60
2022/08/29 11:07:20;;;;;;;7.68;3.75;;;20.00;99.90;;;;;;4981276;28;20117;-61
2022/08/29 11:09:52;;;;;;;10.63;3.53;;;20.00;99.90;;;;;;4985582;28;20037;-61
2022/08/29 11:12:43;;;;;;;9.98;3.63;;;20.40;99.90;;;;;;4983188;28;20031;-60
2022/08/29 11:15:33;;;;;;;10.52;3.78;;;20.50;99.90;;;;;;4986784;28;20045;-61
2022/08/29 11:18:18;;;;;;;9.40;3.92;;;20.40;99.90;;;;;;4985905;28;20474;-61
2022/08/29 11:20:48;;;;;;;8.35;3.20;;;20.60;99.90;;;;;;4984958;28;20022;-61
2022/08/29 11:23:27;;;;;;;11.88;3.35;;;20.70;99.90;;;;;;4981563;28;20387;-60
2022/08/29 11:25:54;;;;;;;11.98;3.85;;;20.70;99.90;;;;;;4984848;28;20026;-61
2022/08/29 11:28:26;;;;;;;12.57;3.85;;;20.60;99.90;;;;;;4986794;28;20030;-61
2022/08/29 11:31:44;;;;;;;10.80;3.67;;;20.80;99.90;;;;;;4984433;28;20026;-61
2022/08/29 11:34:47;;;;;;;11.40;3.97;;;20.90;99.90;;;;;;4980185;28;20045;-62
2022/08/29 11:37:24;;;;;;;11.57;4.30;;;21.00;99.90;;;;;;4979386;28;20485;-60
2022/08/29 11:39:52;;;;;;;9.05;3.90;;;20.60;99.90;;;;;;4939894;28;20524;-61
2022/08/29 11:42:22;;;;;;;7.38;3.40;;;20.80;99.90;;;;;;4996155;28;20470;-60
2022/08/29 11:44:54;;;;;;;6.88;3.13;;;20.60;99.90;;;;;;4983904;28;20216;-61
2022/08/29 11:47:37;;;;;;;11.02;3.85;;;20.70;99.90;;;;;;4986856;28;20021;-60
2022/08/29 11:50:14;;;;;;;8.98;3.78;;;20.90;99.90;;;;;;4986665;28;20035;-61
2022/08/29 11:53:06;;;;;;;8.85;3.80;;;21.00;99.90;;;;;;4981075;28;20034;-61
2022/08/29 11:55:38;;;;;;;10.57;3.88;;;20.90;99.90;;;;;;4977069;28;20025;-61
2022/08/29 11:58:27;;;;;;;8.57;3.38;;;20.80;99.90;;;;;;4980299;28;20031;-60
2022/08/29 12:00:54;;;;;;;6.68;3.40;;;20.80;99.90;;;;;;4967935;28;20038;-61
2022/08/29 12:03:32;;;;;;;9.45;4.00;;;21.00;99.90;;;;;;4986452;28;20038;-59
2022/08/29 12:06:19;;;;;;;10.50;3.75;;;21.10;99.90;;;;;;4994626;28;20706;-60
2022/08/29 12:08:56;;;;;;;8.30;3.70;;;21.10;99.90;;;;;;4986107;28;20113;-61
2022/08/29 12:11:22;;;;;;;9.63;3.40;;;20.90;99.90;;;;;;4991955;28;20033;-61
2022/08/29 12:13:47;;;;;;;8.90;3.20;;;20.70;99.90;;;;;;4979533;28;20033;-60
2022/08/29 12:16:23;;;;;;;10.27;3.75;;;20.80;99.90;;;;;;4987758;28;20397;-58
2022/08/29 12:18:54;;;;;;;8.27;3.95;;;21.30;99.90;;;;;;4978511;28;20037;-61
2022/08/29 12:21:35;;;;;;;9.68;3.65;;;21.30;99.90;;;;;;4983553;28;20042;-61
2022/08/29 12:24:24;;;;;;;7.65;3.40;;;21.20;99.90;;;;;;4981700;28;20027;-60
2022/08/29 12:26:50;;;;;;;13.40;3.65;;;21.30;99.90;;;;;;4974844;28;20641;-61
2022/08/29 12:29:20;;;;;;;8.75;3.47;;;21.30;99.90;;;;;;4986557;28;20038;-61
2022/08/29 12:32:04;;;;;;;7.18;3.42;;;21.50;99.90;;;;;;4978639;28;20031;-61
2022/08/29 12:34:37;;;;;;;7.88;3.30;;;21.50;99.90;;;;;;4988140;28;20157;-61
2022/08/29 12:37:02;;;;;;;9.37;3.60;;;21.20;99.90;;;;;;4986220;28;20037;-61
2022/08/29 12:40:05;;;;;;;9.77;3.47;;;21.40;99.90;;;;;;4982524;28;20638;-60
2022/08/29 12:42:59;;;;;;;11.32;4.20;;;21.50;99.90;;;;;;4980696;28;20099;-61
2022/08/29 12:45:26;;;;;;;10.98;4.07;;;21.40;99.90;;;;;;4978536;28;20026;-61
2022/08/29 12:48:06;;;;;;;9.77;4.10;;;21.30;99.90;;;;;;4986386;28;20176;-61
2022/08/29 12:50:44;;;;;;;6.07;3.50;;;21.40;99.90;;;;;;4977634;28;20346;-62
2022/08/29 12:53:25;;;;;;;8.85;3.80;;;21.50;99.90;;;;;;4980383;28;20038;-61
2022/08/29 12:56:02;;;;;;;7.80;3.63;;;21.50;99.90;;;;;;4970856;28;20560;-62
2022/08/29 12:58:35;;;;;;;9.60;3.67;;;;;;;;;;4986517;28;20652;-62
2022/08/29 13:01:06;;;;;;;7.95;3.97;;;21.10;99.90;;;;;;4979526;28;20022;-61
2022/08/29 13:03:32;;;;;;;9.15;3.80;;;21.40;99.90;;;;;;4982221;28;20093;-61
2022/08/29 13:06:12;;;;;;;10.65;3.65;;;21.40;99.90;;;;;;4989265;28;20038;-61
2022/08/29 13:08:37;;;;;;;8.63;3.90;;;21.50;99.90;;;;;;4981677;28;20401;-62
2022/08/29 13:11:06;;;;;;;10.82;3.72;;;21.50;99.90;;;;;;4991437;28;20041;-62
2022/08/29 13:13:33;;;;;;;8.93;3.63;;;21.60;99.90;;;;;;4975176;28;20030;-61
2022/08/29 13:16:02;;;;;;;8.15;3.47;;;21.60;99.90;;;;;;4990220;28;20045;-62